Otagawa — JD3046 — position and weather

sailwx.info

Track history (hours):
 
Tides and Currents Weather Stations Pressure Air Temp Water Temp Dewpoint Dewpoint Depression Visibility Wind Speed Wind Dir Waves Ship Positions

Otagawa

Last reported at 2015-May-25 11:16 UTC. Time now 2015-May-27 13:52 UTC.
Position N 35°02' E 139°30'.

Length 70 m; draft 4 m.

Type: Ship. MMSI: 431001328.

Date/timePositionNaut miles runAvg speedWind from/ knotsBaromVisibWave heightAir tempDewpointWater temp
2015-May-25 11:16N 35°02' E 139°30'1011.8
2015-May-25 10:24N 35°07' E 139°41'911.2
2015-May-25 09:33N 35°15' E 139°46'1110.7
2015-May-25 08:33N 35°26' E 139°42'1 1.1
2015-May-25 07:33N 35°27' E 139°42'3 2.7
2015-May-25 06:34N 35°24' E 139°41'0 0.0
2015-May-25 05:31N 35°24' E 139°41'1 0.7
2015-May-25 04:33N 35°24' E 139°40'1 0.5
2015-May-25 03:32N 35°23' E 139°40'0 0.0
2015-May-25 02:32N 35°23' E 139°40'0 0.0
2015-May-25 01:32N 35°23' E 139°40'0 0.0
2015-May-25 00:32N 35°23' E 139°40'5 4.6
2015-May-24 23:33N 35°20' E 139°43'1010.0
2015-May-24 22:33N 35°10' E 139°46'1510.2
2015-May-24 21:04N 34°59' E 139°34'610.8
2015-May-24 20:33N 34°56' E 139°28'226 6.3
2015-May-23 08:25N 34°10' E 134°60'1112.5
2015-May-23 07:33N 34°21' E 135°00'1111.5
2015-May-23 06:33N 34°29' E 135°10'1111.2
2015-May-23 05:33N 34°38' E 135°18'3 2.4
2015-May-23 04:21N 34°41' E 135°17'0 0.0
2015-May-23 03:33N 34°41' E 135°17'0 0.0
2015-May-23 02:27N 34°41' E 135°17'0 0.0
2015-May-23 01:33N 34°41' E 135°17'3 2.6
2015-May-23 00:28N 34°40' E 135°14'0 0.0
2015-May-22 23:31N 34°40' E 135°14'2 1.5
2015-May-22 22:31N 34°39' E 135°15'0 0.0
2015-May-22 21:31N 34°39' E 135°15'2 1.8
2015-May-22 20:33N 34°37' E 135°15'1010.5
2015-May-22 19:33N 34°28' E 135°10'1010.1
2015-May-22 18:32N 34°20' E 135°02'10 9.8
2015-May-22 17:33N 34°10' E 135°00'228 8.8
2015-May-21 15:33N 35°01' E 139°30'1110.7
2015-May-21 14:33N 35°06' E 139°41'1010.5
2015-May-21 13:33N 35°16' E 139°46'9 8.9
2015-May-21 12:33N 35°24' E 139°41'0 0.0
2015-May-21 11:34N 35°24' E 139°41'0 0.0
2015-May-21 10:33N 35°24' E 139°41'1 0.9
2015-May-21 09:32N 35°23' E 139°40'0 0.0
2015-May-21 08:32N 35°23' E 139°40'0 0.0
2015-May-21 07:32N 35°23' E 139°40'0 0.0
2015-May-21 06:33N 35°23' E 139°40'3 2.7
2015-May-21 05:33N 35°26' E 139°41'5 4.8
2015-May-21 04:33N 35°29' E 139°45'4 3.7
2015-May-21 03:33N 35°26' E 139°46'9 9.2
2015-May-21 02:33N 35°16' E 139°46'9 9.1
2015-May-21 01:33N 35°07' E 139°45'1010.1
2015-May-21 00:33N 35°01' E 139°36'  
2015-May-18 02:15N 35°02' E 138°30'0 0.0
2015-May-18 01:15N 35°02' E 138°30'0 0.0
2015-May-18 00:33N 35°02' E 138°30'180 4.6
2015-May-16 09:31N 34°17' E 134°59'9 9.6
2015-May-16 08:34N 34°25' E 135°04'1111.4
2015-May-16 07:33N 34°33' E 135°14'8 8.2
2015-May-16 06:33N 34°41' E 135°17'0 0.1
2015-May-16 05:33N 34°41' E 135°17'3 2.6
2015-May-16 04:31N 34°40' E 135°14'0 0.1
2015-May-16 03:32N 34°40' E 135°14'2 1.7
2015-May-16 02:33N 34°39' E 135°16'1 1.0
2015-May-16 01:15N 34°38' E 135°17'4 6.1
2015-May-16 00:33N 34°34' E 135°15'1111.0
2015-May-15 23:33N 34°25' E 135°07'1210.9
2015-May-15 22:27N 34°15' E 134°59'1011.1
2015-May-15 21:33N 34°05' E 135°01'  
Track history (hours):
 
Tides and Currents Weather Stations Pressure Air Temp Water Temp Dewpoint Dewpoint Depression Visibility Wind Speed Wind Dir Waves Ship Positions

Otagawa

Last reported at 2015-May-25 11:16 UTC. Time now 2015-May-27 13:52 UTC.
Position N 35°02' E 139°30'.

Length 70 m; draft 4 m.

Type: Ship. MMSI: 431001328.

Date/timePositionNaut miles runAvg speedWind from/ knotsBaromVisibWave heightAir tempDewpointWater temp
2015-May-25 11:16N 35°02' E 139°30'1011.8
2015-May-25 10:24N 35°07' E 139°41'911.2
2015-May-25 09:33N 35°15' E 139°46'1110.7
2015-May-25 08:33N 35°26' E 139°42'1 1.1
2015-May-25 07:33N 35°27' E 139°42'3 2.7
2015-May-25 06:34N 35°24' E 139°41'0 0.0
2015-May-25 05:31N 35°24' E 139°41'1 0.7
2015-May-25 04:33N 35°24' E 139°40'1 0.5
2015-May-25 03:32N 35°23' E 139°40'0 0.0
2015-May-25 02:32N 35°23' E 139°40'0 0.0
2015-May-25 01:32N 35°23' E 139°40'0 0.0
2015-May-25 00:32N 35°23' E 139°40'5 4.6
2015-May-24 23:33N 35°20' E 139°43'1010.0
2015-May-24 22:33N 35°10' E 139°46'1510.2
2015-May-24 21:04N 34°59' E 139°34'610.8
2015-May-24 20:33N 34°56' E 139°28'226 6.3
2015-May-23 08:25N 34°10' E 134°60'1112.5
2015-May-23 07:33N 34°21' E 135°00'1111.5
2015-May-23 06:33N 34°29' E 135°10'1111.2
2015-May-23 05:33N 34°38' E 135°18'3 2.4
2015-May-23 04:21N 34°41' E 135°17'0 0.0
2015-May-23 03:33N 34°41' E 135°17'0 0.0
2015-May-23 02:27N 34°41' E 135°17'0 0.0
2015-May-23 01:33N 34°41' E 135°17'3 2.6
2015-May-23 00:28N 34°40' E 135°14'0 0.0
2015-May-22 23:31N 34°40' E 135°14'2 1.5
2015-May-22 22:31N 34°39' E 135°15'0 0.0
2015-May-22 21:31N 34°39' E 135°15'2 1.8
2015-May-22 20:33N 34°37' E 135°15'1010.5
2015-May-22 19:33N 34°28' E 135°10'1010.1
2015-May-22 18:32N 34°20' E 135°02'10 9.8
2015-May-22 17:33N 34°10' E 135°00'228 8.8
2015-May-21 15:33N 35°01' E 139°30'1110.7
2015-May-21 14:33N 35°06' E 139°41'1010.5
2015-May-21 13:33N 35°16' E 139°46'9 8.9
2015-May-21 12:33N 35°24' E 139°41'0 0.0
2015-May-21 11:34N 35°24' E 139°41'0 0.0
2015-May-21 10:33N 35°24' E 139°41'1 0.9
2015-May-21 09:32N 35°23' E 139°40'0 0.0
2015-May-21 08:32N 35°23' E 139°40'0 0.0
2015-May-21 07:32N 35°23' E 139°40'0 0.0
2015-May-21 06:33N 35°23' E 139°40'3 2.7
2015-May-21 05:33N 35°26' E 139°41'5 4.8
2015-May-21 04:33N 35°29' E 139°45'4 3.7
2015-May-21 03:33N 35°26' E 139°46'9 9.2
2015-May-21 02:33N 35°16' E 139°46'9 9.1
2015-May-21 01:33N 35°07' E 139°45'1010.1
2015-May-21 00:33N 35°01' E 139°36'  
2015-May-18 02:15N 35°02' E 138°30'0 0.0
2015-May-18 01:15N 35°02' E 138°30'0 0.0
2015-May-18 00:33N 35°02' E 138°30'180 4.6
2015-May-16 09:31N 34°17' E 134°59'9 9.6
2015-May-16 08:34N 34°25' E 135°04'1111.4
2015-May-16 07:33N 34°33' E 135°14'8 8.2
2015-May-16 06:33N 34°41' E 135°17'0 0.1
2015-May-16 05:33N 34°41' E 135°17'3 2.6
2015-May-16 04:31N 34°40' E 135°14'0 0.1
2015-May-16 03:32N 34°40' E 135°14'2 1.7
2015-May-16 02:33N 34°39' E 135°16'1 1.0
2015-May-16 01:15N 34°38' E 135°17'4 6.1
2015-May-16 00:33N 34°34' E 135°15'1111.0
2015-May-15 23:33N 34°25' E 135°07'1210.9
2015-May-15 22:27N 34°15' E 134°59'1011.1
2015-May-15 21:33N 34°05' E 135°01'  

Dump ship's entire track history